Time;durP1;ratioP1;P1;durP2;ratioP2;P2;SDS_P1;SDS_P2;PMS_P1;PMS_P2;Temp;Humidity;BMP_temperature;BMP_pressure;BME280_temperature;BME280_humidity;BME280_pressure;Samples;Min_cycle;Max_cycle;Signal;HPM_P1;HPM_P2
2022/03/20 00:00:12;;;;;;;10.30;6.25;;;;;;;;;;5050155;28;20043;-61
2022/03/20 00:02:39;;;;;;;13.40;6.05;;;;;;;;;;5049905;28;20044;-61
2022/03/20 00:05:05;;;;;;;10.73;5.85;;;;;;;;;;5049941;28;20021;-61
2022/03/20 00:07:33;;;;;;;10.73;5.72;;;;;;;;;;5050236;28;20037;-62
2022/03/20 00:10:00;;;;;;;9.95;5.60;;;;;;;;;;5050083;28;20083;-61
2022/03/20 00:12:26;;;;;;;11.85;5.55;;;;;;;;;;5049726;28;20052;-61
2022/03/20 00:14:52;;;;;;;10.88;5.72;;;;;;;;;;5050088;28;20028;-64
2022/03/20 00:17:20;;;;;;;10.57;6.10;;;;;;;;;;5050629;28;20036;-65
2022/03/20 00:19:47;;;;;;;11.93;5.55;;;;;;;;;;5051081;28;20115;-61
2022/03/20 00:22:13;;;;;;;10.73;6.30;;;;;;;;;;5051289;28;20016;-61
2022/03/20 00:24:43;;;;;;;11.38;6.45;;;;;;;;;;5051185;28;20507;-63
2022/03/20 00:27:10;;;;;;;12.82;6.38;;;;;;;;;;5049233;28;20040;-61
2022/03/20 00:29:36;;;;;;;11.82;6.32;;;;;;;;;;5049530;28;20028;-61
2022/03/20 00:32:03;;;;;;;7.80;4.95;;;;;;;;;;5050501;28;20052;-61
2022/03/20 00:34:29;;;;;;;10.43;5.93;;;;;;;;;;5050594;28;20025;-61
2022/03/20 00:36:55;;;;;;;10.52;5.53;;;;;;;;;;5050791;28;20044;-61
2022/03/20 00:39:21;;;;;;;9.90;5.63;;;;;;;;;;5050554;28;20044;-61
2022/03/20 00:41:47;;;;;;;12.35;6.13;;;;;;;;;;5050570;28;20052;-63
2022/03/20 00:44:13;;;;;;;11.35;5.85;;;;;;;;;;5050557;28;20023;-62
2022/03/20 00:46:39;;;;;;;13.68;6.07;;;;;;;;;;5050832;28;20031;-62
2022/03/20 00:49:05;;;;;;;8.60;5.47;;;;;;;;;;5054524;28;20026;-62
2022/03/20 00:51:32;;;;;;;9.73;5.65;;;;;;;;;;5068537;28;20067;-61
2022/03/20 00:53:59;;;;;;;10.68;5.53;;;;;;;;;;5053672;28;20392;-62
2022/03/20 00:56:26;;;;;;;11.20;5.72;;;;;;;;;;5054577;28;20025;-63
2022/03/20 00:58:52;;;;;;;12.15;6.03;;;;;;;;;;5054569;28;20017;-62
2022/03/20 01:01:18;;;;;;;9.75;5.20;;;;;;;;;;5054011;28;20052;-64
2022/03/20 01:03:44;;;;;;;7.90;4.97;;;;;;;;;;5054120;28;20059;-64
2022/03/20 01:06:11;;;;;;;9.43;5.72;;;;;;;;;;5054165;28;20644;-63
2022/03/20 01:08:38;;;;;;;8.93;4.95;;;;;;;;;;5054019;28;20224;-62
2022/03/20 01:11:05;;;;;;;10.02;5.03;;;;;;;;;;5053904;28;20036;-62
2022/03/20 01:13:33;;;;;;;11.15;5.65;;;;;;;;;;5053867;28;20379;-62
2022/03/20 01:15:59;;;;;;;9.43;5.15;;;;;;;;;;5053620;28;20594;-63
2022/03/20 01:18:25;;;;;;;11.32;5.68;;;;;;;;;;5052607;28;20025;-62
2022/03/20 01:20:51;;;;;;;9.43;5.28;;;;;;;;;;5053658;28;20039;-64
2022/03/20 01:23:20;;;;;;;9.02;5.28;;;;;;;;;;5052285;28;20023;-63
2022/03/20 01:25:47;;;;;;;8.73;5.57;;;;;;;;;;5053498;28;20108;-62
2022/03/20 01:28:13;;;;;;;10.23;6.05;;;;;;;;;;5053545;28;20432;-63
2022/03/20 01:30:39;;;;;;;9.02;5.45;;;;;;;;;;5053168;28;20029;-63
2022/03/20 01:33:05;;;;;;;10.02;5.65;;;;;;;;;;5053603;28;20021;-61
2022/03/20 01:38:19;;;;;;;9.35;5.85;;;;;;;;;;5053514;28;20072;-63
2022/03/20 01:40:46;;;;;;;9.15;5.50;;;;;;;;;;5053542;28;20029;-62
2022/03/20 01:43:12;;;;;;;10.50;6.13;;;;;;;;;;5053544;28;20104;-61
2022/03/20 01:45:38;;;;;;;10.05;5.68;;;;;;;;;;5053475;28;20016;-62
2022/03/20 01:48:04;;;;;;;10.50;6.05;;;;;;;;;;5053547;28;20021;-62
2022/03/20 01:50:34;;;;;;;10.18;6.45;;;;;;;;;;5053512;28;20032;-61
2022/03/20 01:53:00;;;;;;;8.77;5.50;;;;;;;;;;5053388;28;20021;-64
2022/03/20 01:55:28;;;;;;;9.43;5.60;;;;;;;;;;5052913;28;20079;-63
2022/03/20 01:57:54;;;;;;;9.52;5.50;;;;;;;;;;5052404;28;20013;-61
2022/03/20 02:00:21;;;;;;;8.95;5.53;;;;;;;;;;5052827;28;20037;-63
2022/03/20 02:02:48;;;;;;;10.13;5.78;;;;;;;;;;5052886;28;20116;-61
2022/03/20 02:05:14;;;;;;;10.07;6.22;;;;;;;;;;5052785;28;20029;-62
2022/03/20 02:07:42;;;;;;;10.15;5.78;;;;;;;;;;5050405;28;20028;-63
2022/03/20 02:10:09;;;;;;;10.73;5.57;;;;;;;;;;5033132;28;20017;-62
2022/03/20 02:12:36;;;;;;;9.18;5.40;;;;;;;;;;5048329;28;20175;-61
2022/03/20 02:15:02;;;;;;;11.15;6.55;;;;;;;;;;5033044;28;20384;-63
2022/03/20 02:17:30;;;;;;;10.10;6.57;;;;;;;;;;5048482;28;20531;-62
2022/03/20 02:19:57;;;;;;;9.70;5.72;;;;;;;;;;5032950;28;20037;-64
2022/03/20 02:22:24;;;;;;;9.90;5.65;;;;;;;;;;5033045;28;20076;-62
2022/03/20 02:24:51;;;;;;;10.07;5.80;;;;;;;;;;5033049;28;20373;-63
2022/03/20 02:27:24;;;;;;;11.35;6.07;;;;;;;;;;5032920;28;20030;-63
2022/03/20 02:29:50;;;;;;;10.52;5.53;;;;;;;;;;5032827;28;20656;-63
2022/03/20 02:32:18;;;;;;;11.48;6.30;;;;;;;;;;5032835;28;20017;-64
2022/03/20 02:34:48;;;;;;;9.85;6.10;;;;;;;;;;5032910;28;20029;-62
2022/03/20 02:37:15;;;;;;;10.15;5.70;;;;;;;;;;5032817;28;20021;-62
2022/03/20 02:39:41;;;;;;;10.30;6.53;;;;;;;;;;5032721;28;20030;-63
2022/03/20 02:42:08;;;;;;;10.30;5.80;;;;;;;;;;5032744;28;20025;-63
2022/03/20 02:44:54;;;;;;;10.00;6.07;;;;;;;;;;5032629;28;20408;-63
2022/03/20 02:47:23;;;;;;;10.25;5.97;;;;;;;;;;5049959;28;20021;-63
2022/03/20 02:49:56;;;;;;;10.93;6.53;;;;;;;;;;5052290;28;20021;-63
2022/03/20 02:52:24;;;;;;;10.55;5.63;;;;;;;;;;5052343;28;20017;-64
2022/03/20 02:54:50;;;;;;;10.50;6.20;;;;;;;;;;5052339;28;20025;-62
2022/03/20 02:57:16;;;;;;;12.52;6.63;;;;;;;;;;5067683;28;20021;-61
2022/03/20 02:59:42;;;;;;;9.77;5.45;;;;;;;;;;5052144;28;20528;-62
2022/03/20 03:02:10;;;;;;;10.23;5.75;;;;;;;;;;5052150;28;20056;-64
2022/03/20 03:04:41;;;;;;;10.98;6.03;;;;;;;;;;5052371;28;20013;-63
2022/03/20 03:07:07;;;;;;;12.27;6.78;;;;;;;;;;5052483;28;20032;-63
2022/03/20 03:12:18;;;;;;;10.48;6.30;;;;;;;;;;5052517;28;20098;-61
2022/03/20 03:17:29;;;;;;;10.70;7.03;;;;;;;;;;5052045;28;20063;-63
2022/03/20 03:19:56;;;;;;;9.65;5.53;;;;;;;;;;5051735;28;20033;-61
2022/03/20 03:22:22;;;;;;;9.85;5.97;;;;;;;;;;5051557;28;20031;-64
2022/03/20 03:24:48;;;;;;;11.90;5.90;;;;;;;;;;5051837;28;20020;-61
2022/03/20 03:27:14;;;;;;;9.48;5.93;;;;;;;;;;5051843;28;20013;-64
2022/03/20 03:29:40;;;;;;;11.13;6.85;;;;;;;;;;5051729;28;20025;-64
2022/03/20 03:32:07;;;;;;;12.27;6.68;;;;;;;;;;5051892;28;20728;-63
2022/03/20 03:37:20;;;;;;;10.38;5.65;;;;;;;;;;5051448;28;20127;-61
2022/03/20 03:39:46;;;;;;;10.88;6.57;;;;;;;;;;5051267;28;20033;-63
2022/03/20 03:42:12;;;;;;;9.75;5.70;;;;;;;;;;5051618;28;20052;-62
2022/03/20 03:44:39;;;;;;;9.60;5.78;;;;;;;;;;5066870;28;20037;-62
2022/03/20 03:47:06;;;;;;;10.90;6.15;;;;;;;;;;5035962;28;20043;-62
2022/03/20 03:49:33;;;;;;;12.18;6.90;;;;;;;;;;5031543;28;20141;-62
2022/03/20 03:51:59;;;;;;;9.40;6.00;;;;;;;;;;5031660;28;20028;-63
2022/03/20 03:54:25;;;;;;;9.85;5.72;;;;;;;;;;5031458;28;20028;-61
2022/03/20 03:56:51;;;;;;;12.57;6.90;;;;;;;;;;5031328;28;20052;-64
2022/03/20 03:59:18;;;;;;;9.52;6.10;;;;;;;;;;5031564;28;20060;-61
2022/03/20 04:01:44;;;;;;;12.63;7.50;;;;;;;;;;5031231;28;20529;-61
2022/03/20 04:04:10;;;;;;;11.05;6.05;;;;;;;;;;5046840;28;20057;-61
2022/03/20 04:06:36;;;;;;;9.38;6.18;;;;;;;;;;5031456;28;20048;-61
2022/03/20 04:09:02;;;;;;;11.15;6.30;;;;;;;;;;5031277;28;20101;-61
2022/03/20 04:11:29;;;;;;;10.88;6.72;;;;;;;;;;5046659;28;20092;-62
2022/03/20 04:13:56;;;;;;;12.57;6.72;;;;;;;;;;5031377;28;20053;-61
2022/03/20 04:16:22;;;;;;;14.35;7.72;;;;;;;;;;5031254;28;20021;-61
2022/03/20 04:18:48;;;;;;;11.85;7.32;;;;;;;;;;5031088;28;20033;-60
2022/03/20 04:21:14;;;;;;;11.90;7.25;;;;;;;;;;5032608;28;20030;-61
2022/03/20 04:23:48;;;;;;;12.25;7.03;;;;;;;;;;5035228;28;20520;-61
2022/03/20 04:26:17;;;;;;;12.48;7.68;;;;;;;;;;5035729;28;20024;-61
2022/03/20 04:28:47;;;;;;;12.65;7.93;;;;;;;;;;5035358;28;20025;-61
2022/03/20 04:31:16;;;;;;;13.13;8.32;;;;;;;;;;5034844;28;20465;-61
2022/03/20 04:33:47;;;;;;;10.35;6.30;;;;;;;;;;5035266;28;20384;-61
2022/03/20 04:36:13;;;;;;;11.27;7.25;;;;;;;;;;5035051;28;20021;-62
2022/03/20 04:38:39;;;;;;;9.45;5.90;;;;;;;;;;5035055;28;20060;-63
2022/03/20 04:41:05;;;;;;;12.18;7.78;;;;;;;;;;5034661;28;20110;-61
2022/03/20 04:43:32;;;;;;;11.55;7.50;;;;;;;;;;5034600;28;20025;-61
2022/03/20 04:45:58;;;;;;;12.07;6.57;;;;;;;;;;5056176;28;20029;-61
2022/03/20 04:59:42;;;;;;;10.75;6.72;;;;;;;;;;5051777;28;20067;-61
2022/03/20 05:02:08;;;;;;;11.82;6.75;;;;;;;;;;5053091;28;20043;-63
2022/03/20 05:04:34;;;;;;;12.32;6.32;;;;;;;;;;5069875;28;20048;-60
2022/03/20 05:07:00;;;;;;;10.07;6.85;;;;;;;;;;5054250;28;20024;-64
2022/03/20 05:14:59;;;;;;;10.02;6.60;;;;;;;;;;5053981;28;20036;-64
2022/03/20 05:17:25;;;;;;;13.95;7.63;;;;;;;;;;5053971;28;20017;-64
2022/03/20 05:19:51;;;;;;;11.48;6.53;;;;;;;;;;5054008;28;20407;-63
2022/03/20 05:22:17;;;;;;;10.65;6.22;;;;;;;;;;5054089;28;20021;-63
2022/03/20 05:24:44;;;;;;;11.75;7.47;;;;;;;;;;5054252;28;20186;-62
2022/03/20 05:27:10;;;;;;;11.57;6.88;;;;;;;;;;5053930;28;20049;-64
2022/03/20 05:29:38;;;;;;;10.98;6.88;;;;;;;;;;5053942;28;20052;-61
2022/03/20 05:32:05;;;;;;;12.88;8.23;;;;;;;;;;5053574;28;20028;-61
2022/03/20 05:34:33;;;;;;;10.90;7.20;;;;;;;;;;5053391;28;20064;-62
2022/03/20 05:36:59;;;;;;;10.32;6.20;;;;;;;;;;5069179;28;20488;-62
2022/03/20 05:39:26;;;;;;;10.80;6.78;;;;;;;;;;5053567;28;20116;-63
2022/03/20 05:41:52;;;;;;;10.82;5.82;;;;;;;;;;5053666;28;20100;-63
2022/03/20 05:44:19;;;;;;;10.07;6.68;;;;;;;;;;5053652;28;20512;-62
2022/03/20 05:46:46;;;;;;;12.65;7.38;;;;;;;;;;5040666;28;20037;-63
2022/03/20 05:49:12;;;;;;;12.45;7.05;;;;;;;;;;5033675;28;20431;-62
2022/03/20 05:51:38;;;;;;;12.13;6.70;;;;;;;;;;5033493;28;20025;-64
2022/03/20 05:54:05;;;;;;;14.18;7.47;;;;;;;;;;5033358;28;20045;-63
2022/03/20 05:59:16;;;;;;;10.65;6.63;;;;;;;;;;5033150;28;20388;-61
2022/03/20 06:01:42;;;;;;;10.57;6.85;;;;;;;;;;5033427;28;20045;-63
2022/03/20 06:04:08;;;;;;;15.52;7.35;;;;;;;;;;5033458;28;20018;-61
2022/03/20 06:06:36;;;;;;;10.98;6.65;;;;;;;;;;5033476;28;20026;-63
2022/03/20 06:09:02;;;;;;;11.52;6.63;;;;;;;;;;5038625;28;20021;-61
2022/03/20 06:11:28;;;;;;;12.52;7.80;;;;;;;;;;5038973;28;20029;-61
2022/03/20 06:13:55;;;;;;;11.63;7.15;;;;;;;;;;5032749;28;20093;-61
2022/03/20 06:16:24;;;;;;;11.82;6.55;;;;;;;;;;5033276;28;20028;-60
2022/03/20 06:18:50;;;;;;;12.68;7.03;;;;;;;;;;5033555;28;20026;-62
2022/03/20 06:21:16;;;;;;;10.15;6.13;;;;;;;;;;5048454;28;20464;-63
2022/03/20 06:23:44;;;;;;;10.48;6.72;;;;;;;;;;5033388;28;20090;-64
2022/03/20 06:26:11;;;;;;;10.60;6.78;;;;;;;;;;5033298;28;20075;-61
2022/03/20 06:28:40;;;;;;;13.25;6.55;;;;;;;;;;5033255;28;20022;-62
2022/03/20 06:31:06;;;;;;;11.43;7.35;;;;;;;;;;5032988;28;20033;-61
2022/03/20 06:33:34;;;;;;;12.05;7.20;;;;;;;;;;5033209;28;20028;-62
2022/03/20 06:36:01;;;;;;;12.00;7.32;;;;;;;;;;5032823;28;20079;-61
2022/03/20 06:38:27;;;;;;;12.43;7.18;;;;;;;;;;5033021;28;20492;-61
2022/03/20 06:40:53;;;;;;;11.13;7.30;;;;;;;;;;5032488;28;20423;-61
2022/03/20 06:43:19;;;;;;;9.90;6.63;;;;;;;;;;5032684;28;20719;-61
2022/03/20 06:45:46;;;;;;;12.70;7.53;;;;;;;;;;5033015;28;20036;-62
2022/03/20 06:48:13;;;;;;;10.55;6.25;;;;;;;;;;5032946;28;20031;-61
2022/03/20 06:50:39;;;;;;;11.98;6.28;;;;;;;;;;5032859;28;20113;-61
2022/03/20 06:53:05;;;;;;;12.27;7.30;;;;;;;;;;5033028;28;20022;-64
2022/03/20 06:55:31;;;;;;;9.25;6.07;;;;;;;;;;5032706;28;20026;-61
2022/03/20 06:57:58;;;;;;;10.57;6.85;;;;;;;;;;5032720;28;20053;-61
2022/03/20 07:00:28;;;;;;;11.32;6.35;;;;;;;;;;5031429;28;20084;-61
2022/03/20 07:02:54;;;;;;;8.68;6.03;;;;;;;;;;5031551;28;20034;-61
2022/03/20 07:05:21;;;;;;;9.43;6.03;;;;;;;;;;5031797;28;20480;-61
2022/03/20 07:07:48;;;;;;;10.60;6.20;;;;;;;;;;5031355;28;20028;-62
2022/03/20 07:10:15;;;;;;;10.38;6.53;;;;;;;;;;5046997;28;20025;-61
2022/03/20 07:12:41;;;;;;;12.35;6.13;;;;;;;;;;5052263;28;20028;-61
2022/03/20 07:15:07;;;;;;;9.32;5.93;;;;;;;;;;5051084;28;20508;-61
2022/03/20 07:17:36;;;;;;;9.68;5.50;;;;;;;;;;5049757;28;20134;-61
2022/03/20 07:20:03;;;;;;;8.10;5.43;;;;;;;;;;5048599;28;20024;-61
2022/03/20 07:22:29;;;;;;;11.35;6.25;;;;;;;;;;5051112;28;20468;-63
2022/03/20 07:29:29;;;;;;;9.60;5.75;;;;;;;;;;5050797;28;20079;-64
2022/03/20 07:30:25;;;;;;;10.02;5.88;;;;;;;;;;5051821;28;20119;-61
2022/03/20 07:32:51;;;;;;;9.55;5.00;;;;;;;;;;5052156;28;20017;-63
2022/03/20 07:35:18;;;;;;;11.02;5.43;;;;;;;;;;5050611;28;20162;-63
2022/03/20 07:37:44;;;;;;;8.00;5.10;;;;;;;;;;5052042;28;20044;-64
2022/03/20 07:40:10;;;;;;;10.30;5.82;;;;;;;;;;5051510;28;20032;-65
2022/03/20 07:42:38;;;;;;;9.77;5.57;;;;;;;;;;5051581;28;20059;-63
2022/03/20 07:45:04;;;;;;;7.68;4.95;;;;;;;;;;5051717;28;20025;-64
2022/03/20 07:47:30;;;;;;;8.52;4.95;;;;;;;;;;5051860;28;20021;-64
2022/03/20 07:49:56;;;;;;;12.15;5.78;;;;;;;;;;5051728;28;20032;-64
2022/03/20 07:52:22;;;;;;;7.97;5.07;;;;;;;;;;5051635;28;20552;-64
2022/03/20 07:54:49;;;;;;;9.18;5.88;;;;;;;;;;5051583;28;20377;-61
2022/03/20 07:57:16;;;;;;;11.25;5.97;;;;;;;;;;5057696;28;20017;-63
2022/03/20 07:59:44;;;;;;;9.88;5.32;;;;;;;;;;5058166;28;20079;-61
2022/03/20 08:02:10;;;;;;;8.25;5.18;;;;;;;;;;5055370;28;20060;-64
2022/03/20 08:04:37;;;;;;;11.25;6.45;;;;;;;;;;5046726;28;20017;-61
2022/03/20 08:07:03;;;;;;;8.77;5.22;;;;;;;;;;5057792;28;20024;-60
2022/03/20 08:09:30;;;;;;;7.80;4.70;;;;;;;;;;5043072;28;20040;-61
2022/03/20 08:11:56;;;;;;;8.63;5.55;;;;;;;;;;5037971;28;20044;-61
2022/03/20 08:14:23;;;;;;;8.60;5.10;;;;;;;;;;5037991;28;20084;-61
2022/03/20 08:16:50;;;;;;;7.70;4.35;;;;;;;;;;5037954;28;20017;-60
2022/03/20 08:19:21;;;;;;;7.07;4.90;;;;;;;;;;5038040;28;20634;-61
2022/03/20 08:21:49;;;;;;;6.63;4.30;;;;;;;;;;5053589;28;20028;-61
2022/03/20 08:24:16;;;;;;;8.55;5.32;;;;;;;;;;5057795;28;20080;-64
2022/03/20 08:26:42;;;;;;;7.93;4.82;;;;;;;;;;5053491;28;20104;-64
2022/03/20 08:29:10;;;;;;;14.65;5.50;;;;;;;;;;5038019;28;20033;-64
2022/03/20 08:31:36;;;;;;;8.45;4.75;;;;;;;;;;5037583;28;20026;-61
2022/03/20 08:34:04;;;;;;;7.10;4.55;;;;;;;;;;5037954;28;20029;-61
2022/03/20 08:36:30;;;;;;;8.50;4.70;;;;;;;;;;5037760;28;20380;-63
2022/03/20 08:38:56;;;;;;;8.10;4.97;;;;;;;;;;5037803;28;20017;-63
2022/03/20 08:41:22;;;;;;;10.20;5.40;;;;;;;;;;5037453;28;20492;-63
2022/03/20 08:43:48;;;;;;;8.15;5.00;;;;;;;;;;5037644;28;20037;-64
2022/03/20 08:46:17;;;;;;;8.55;4.57;;;;;;;;;;5037651;28;20388;-64
2022/03/20 08:48:43;;;;;;;6.38;4.07;;;;;;;;;;5048278;28;20100;-62
2022/03/20 08:51:09;;;;;;;7.40;4.85;;;;;;;;;;5057057;28;20060;-62
2022/03/20 08:53:35;;;;;;;8.50;4.63;;;;;;;;;;5057333;28;20506;-64
2022/03/20 08:56:01;;;;;;;8.20;5.20;;;;;;;;;;5057867;28;20092;-64
2022/03/20 08:58:28;;;;;;;8.20;4.65;;;;;;;;;;5056179;28;20021;-65
2022/03/20 09:00:57;;;;;;;7.75;4.93;;;;;;;;;;5057259;28;20044;-64
2022/03/20 09:03:23;;;;;;;7.15;4.20;;;;;;;;;;5057270;28;20025;-63
2022/03/20 09:05:49;;;;;;;7.28;4.28;;;;;;;;;;5057390;28;20025;-61
2022/03/20 09:08:15;;;;;;;8.10;4.32;;;;;;;;;;5054068;28;20028;-62
2022/03/20 09:10:43;;;;;;;7.25;4.00;;;;;;;;;;5054323;28;20056;-62
2022/03/20 09:13:09;;;;;;;6.22;3.60;;;;;;;;;;5054267;28;20025;-64
2022/03/20 09:15:35;;;;;;;7.68;4.40;;;;;;;;;;5054387;28;20028;-64
2022/03/20 09:20:47;;;;;;;6.18;3.88;;;;;;;;;;5054183;28;20048;-61
2022/03/20 09:23:14;;;;;;;8.00;4.05;;;;;;;;;;5054052;28;20392;-62
2022/03/20 09:25:40;;;;;;;9.52;4.00;;;;;;;;;;5054143;28;20017;-65
2022/03/20 09:28:07;;;;;;;10.63;3.92;;;;;;;;;;5053878;28;20080;-64
2022/03/20 09:30:34;;;;;;;6.43;3.90;;;;;;;;;;5053913;28;20075;-60
2022/03/20 09:33:04;;;;;;;14.20;4.85;;;;;;;;;;5054213;28;20112;-63
2022/03/20 09:35:31;;;;;;;12.27;3.97;;;;;;;;;;5053762;28;20025;-63
2022/03/20 09:37:57;;;;;;;8.45;3.75;;;;;;;;;;5053544;28;20092;-64
2022/03/20 09:40:24;;;;;;;12.43;4.28;;;;;;;;;;5052469;28;20029;-63
2022/03/20 09:42:51;;;;;;;6.88;4.07;;;;;;;;;;5053931;28;20047;-64
2022/03/20 09:45:18;;;;;;;7.20;4.03;;;;;;;;;;5053623;28;20048;-64
2022/03/20 09:47:45;;;;;;;6.22;3.50;;;;;;;;;;5053285;28;20029;-65
2022/03/20 09:50:12;;;;;;;6.40;3.80;;;;;;;;;;5053328;28;20487;-64
2022/03/20 09:52:38;;;;;;;6.72;3.65;;;;;;;;;;5053391;28;20083;-63
2022/03/20 09:55:05;;;;;;;6.07;3.75;;;;;;;;;;5053355;28;20017;-62
2022/03/20 09:57:31;;;;;;;7.05;3.72;;;;;;;;;;5053594;28;20025;-64
2022/03/20 10:00:01;;;;;;;6.88;4.05;;;;;;;;;;5053381;28;20481;-64
2022/03/20 10:02:27;;;;;;;7.97;3.58;;;;;;;;;;5053330;28;20077;-62
2022/03/20 10:04:58;;;;;;;7.68;3.53;;;;;;;;;;5053729;28;20062;-64
2022/03/20 10:07:25;;;;;;;7.05;4.20;;;;;;;;;;5053337;28;20028;-62
2022/03/20 10:10:18;;;;;;;8.07;4.22;;;;;;;;;;5053215;28;20151;-63
2022/03/20 10:12:47;;;;;;;6.50;3.85;;;;;;;;;;5051705;28;20107;-65
2022/03/20 10:15:32;;;;;;;6.68;3.92;;;;;;;;;;5053026;28;20725;-62
2022/03/20 10:18:14;;;;;;;5.68;3.40;;;;;;;;;;5053006;28;20056;-66
2022/03/20 10:20:49;;;;;;;8.83;4.10;;;;;;;;;;5052459;28;20029;-64
2022/03/20 10:23:28;;;;;;;6.97;3.60;;;;;;;;;;5068255;28;20098;-65
2022/03/20 10:25:55;;;;;;;5.80;3.60;;;;;;;;;;5068017;28;20024;-64
2022/03/20 10:28:21;;;;;;;6.57;4.13;;;;;;;;;;5068126;28;20095;-63
2022/03/20 10:31:00;;;;;;;6.75;3.70;;;;;;;;;;5052780;28;20017;-65
2022/03/20 10:33:26;;;;;;;8.23;3.85;;;;;;;;;;5052953;28;20530;-65
2022/03/20 10:36:09;;;;;;;5.32;3.45;;;;;;;;;;5052665;28;20048;-62
2022/03/20 10:38:38;;;;;;;7.97;3.78;;;;;;;;;;5052391;28;20025;-62
2022/03/20 10:41:16;;;;;;;8.52;4.50;;;;;;;;;;5052539;28;20479;-64
2022/03/20 10:43:43;;;;;;;7.25;4.20;;;;;;;;;;5052612;28;20468;-65
2022/03/20 10:46:10;;;;;;;8.27;3.47;;;;;;;;;;5052426;28;20017;-64
2022/03/20 10:48:43;;;;;;;6.72;3.40;;;;;;;;;;5052498;28;20021;-65
2022/03/20 10:51:09;;;;;;;6.63;3.88;;;;;;;;;;5052370;28;20636;-62
2022/03/20 10:53:36;;;;;;;7.18;3.60;;;;;;;;;;5052326;28;20032;-63
2022/03/20 10:56:06;;;;;;;5.68;3.60;;;;;;;;;;5052315;28;20032;-66
2022/03/20 10:58:36;;;;;;;6.88;3.50;;;;;;;;;;5034495;28;20440;-65
2022/03/20 11:01:02;;;;;;;8.88;3.83;;;;;;;;;;5032375;28;20049;-65
2022/03/20 11:03:29;;;;;;;6.13;3.40;;;;;;;;;;5036518;28;20056;-66
2022/03/20 11:05:57;;;;;;;6.75;3.70;;;;;;;;;;5052573;28;20029;-62
2022/03/20 11:08:25;;;;;;;6.20;3.50;;;;;;;;;;5052574;28;20017;-65
2022/03/20 11:10:52;;;;;;;6.00;3.55;;;;;;;;;;5052398;28;20052;-65
2022/03/20 11:13:19;;;;;;;8.70;3.58;;;;;;;;;;5052332;28;20029;-66
2022/03/20 11:15:46;;;;;;;6.50;3.60;;;;;;;;;;5052366;28;20025;-63
2022/03/20 11:18:15;;;;;;;6.60;3.53;;;;;;;;;;5052009;28;20794;-62
2022/03/20 11:20:45;;;;;;;7.55;3.42;;;;;;;;;;5051987;28;20509;-66
2022/03/20 11:23:13;;;;;;;7.13;3.88;;;;;;;;;;5067690;28;20490;-66
2022/03/20 11:25:40;;;;;;;6.85;3.75;;;;;;;;;;5052213;28;20025;-63
2022/03/20 11:28:08;;;;;;;6.28;3.47;;;;;;;;;;5052296;28;20048;-62
2022/03/20 11:30:35;;;;;;;6.20;3.38;;;;;;;;;;5051296;28;20057;-65
2022/03/20 11:33:02;;;;;;;6.13;3.40;;;;;;;;;;5051938;28;20051;-62
2022/03/20 11:35:33;;;;;;;5.78;3.33;;;;;;;;;;5067235;28;20415;-62
2022/03/20 11:38:17;;;;;;;5.55;3.10;;;;;;;;;;5051998;28;20078;-65
2022/03/20 11:41:02;;;;;;;5.55;3.40;;;;;;;;;;5066964;28;20033;-63
2022/03/20 11:43:28;;;;;;;7.47;3.80;;;;;;;;;;5051572;28;20036;-66
2022/03/20 11:46:12;;;;;;;5.10;3.10;;;;;;;;;;5051383;28;20416;-64
2022/03/20 11:48:38;;;;;;;6.40;3.50;;;;;;;;;;5049521;28;20107;-63
2022/03/20 11:51:04;;;;;;;9.18;4.00;;;;;;;;;;5051305;28;20056;-64
2022/03/20 11:53:37;;;;;;;5.78;3.60;;;;;;;;;;5050920;28;20060;-60
2022/03/20 11:56:03;;;;;;;;;;;;;;;;;;5051499;28;20021;-64
2022/03/20 11:58:36;;;;;;;4.97;2.97;;;;;;;;;;5048463;28;19916;-60
2022/03/20 12:01:05;;;;;;;11.27;3.22;;;;;;;;;;5054145;28;20063;-65
2022/03/20 12:03:52;;;;;;;7.05;3.65;;;;;;;;;;5054401;28;20594;-67
2022/03/20 12:06:36;;;;;;;9.50;3.35;;;;;;;;;;5031668;28;20684;-67
2022/03/20 12:09:09;;;;;;;7.53;3.75;;;;;;;;;;5029931;28;20087;-72
2022/03/20 12:11:35;;;;;;;9.45;3.30;;;;;;;;;;5031378;28;20056;-64
2022/03/20 12:14:11;;;;;;;8.70;3.75;;;;;;;;;;5043336;28;20021;-63
2022/03/20 12:16:50;;;;;;;5.60;3.38;;;;;;;;;;5055152;28;20025;-61
2022/03/20 12:19:17;;;;;;;6.55;2.83;;;;;;;;;;5031830;28;20018;-60
2022/03/20 12:21:54;;;;;;;10.45;3.22;;;;;;;;;;5044739;28;20495;-62
2022/03/20 12:24:55;;;;;;;6.43;3.13;;;;;;;;;;5055700;28;20020;-64
2022/03/20 12:27:22;;;;;;;6.53;3.20;;;;;;;;;;5047139;28;20041;-66
2022/03/20 12:29:49;;;;;;;6.28;3.00;;;;;;;;;;5056402;28;20032;-66
2022/03/20 12:32:16;;;;;;;7.22;3.05;;;;;;;;;;5059335;28;20032;-64
2022/03/20 12:34:44;;;;;;;5.03;3.10;;;;;;;;;;5059168;28;20025;-66
2022/03/20 12:37:32;;;;;;;7.18;3.83;;;;;;;;;;5052817;28;20037;-61
2022/03/20 12:40:04;;;;;;;8.85;3.38;;;;;;;;;;5050095;28;20025;-65
2022/03/20 12:42:32;;;;;;;5.53;2.80;;;;;;;;;;5052334;28;20074;-65
2022/03/20 12:44:58;;;;;;;5.57;3.00;;;;;;;;;;5054853;28;20029;-64
2022/03/20 12:47:25;;;;;;;7.20;3.17;;;;;;;;;;5054751;28;20087;-66
2022/03/20 12:50:02;;;;;;;6.10;3.20;;;;;;;;;;5054285;28;20063;-63
2022/03/20 12:52:30;;;;;;;7.72;2.80;;;;;;;;;;5055780;28;20017;-63
2022/03/20 12:54:58;;;;;;;5.43;3.20;;;;;;;;;;5063330;28;20026;-65
2022/03/20 12:57:41;;;;;;;7.05;2.88;;;;;;;;;;5062827;28;20067;-65
2022/03/20 13:00:13;;;;;;;6.80;3.20;;;;;;;;;;5061291;28;20352;-64
2022/03/20 13:02:56;;;;;;;4.88;2.70;;;;;;;;;;5062356;28;20045;-64
2022/03/20 13:05:22;;;;;;;6.25;3.28;;;;;;;;;;5055235;28;20480;-59
2022/03/20 13:07:48;;;;;;;7.90;3.10;;;;;;;;;;5054384;28;20029;-59
2022/03/20 13:10:16;;;;;;;103.55;9.50;;;;;;;;;;5057681;28;20036;-59
2022/03/20 13:12:55;;;;;;;19.50;3.88;;;;;;;;;;5054169;28;20029;-64
2022/03/20 13:15:22;;;;;;;13.32;3.25;;;;;;;;;;5054464;28;20036;-62
2022/03/20 13:17:48;;;;;;;25.58;3.88;;;;;;;;;;5054134;28;20025;-65
2022/03/20 13:20:22;;;;;;;12.23;3.72;;;;;;;;;;5054034;28;20356;-63
2022/03/20 13:22:48;;;;;;;6.57;2.92;;;;;;;;;;5052885;28;20025;-65
2022/03/20 13:25:18;;;;;;;12.10;3.60;;;;;;;;;;5053797;28;20101;-60
2022/03/20 13:27:47;;;;;;;8.07;3.25;;;;;;;;;;5053900;28;20021;-65
2022/03/20 13:30:17;;;;;;;9.70;3.42;;;;;;;;;;5053731;28;20397;-67
2022/03/20 13:32:44;;;;;;;6.07;2.95;;;;;;;;;;5053471;28;20079;-68
2022/03/20 13:35:11;;;;;;;10.52;3.72;;;;;;;;;;5053703;28;20021;-67
2022/03/20 13:37:37;;;;;;;9.88;3.47;;;;;;;;;;5053786;28;20034;-65
2022/03/20 13:40:04;;;;;;;11.00;3.35;;;;;;;;;;5053629;28;20033;-66
2022/03/20 13:42:30;;;;;;;6.47;3.15;;;;;;;;;;5054037;28;20480;-67
2022/03/20 13:44:57;;;;;;;6.38;3.17;;;;;;;;;;5053443;28;20025;-68
2022/03/20 13:47:26;;;;;;;10.32;3.95;;;;;;;;;;5053290;28;20092;-69
2022/03/20 13:49:54;;;;;;;9.13;3.45;;;;;;;;;;5052541;28;20032;-62
2022/03/20 13:52:25;;;;;;;8.07;3.03;;;;;;;;;;5033418;28;20037;-63
2022/03/20 13:55:09;;;;;;;7.68;3.30;;;;;;;;;;5052526;28;20044;-68
2022/03/20 13:57:49;;;;;;;9.25;3.25;;;;;;;;;;5053097;28;20032;-66
2022/03/20 14:00:15;;;;;;;9.07;3.47;;;;;;;;;;5046248;28;20030;-65
2022/03/20 14:02:44;;;;;;;9.63;3.38;;;;;;;;;;5051933;28;20051;-66
2022/03/20 14:05:15;;;;;;;7.45;2.70;;;;;;;;;;5052621;28;20083;-63
2022/03/20 14:07:41;;;;;;;10.23;3.10;;;;;;;;;;5051562;28;20633;-63
2022/03/20 14:10:23;;;;;;;9.23;3.50;;;;;;;;;;5051377;28;20021;-65
2022/03/20 14:12:49;;;;;;;7.22;3.47;;;;;;;;;;5052103;28;20028;-67
2022/03/20 14:15:16;;;;;;;9.70;4.00;;;;;;;;;;5051872;28;20025;-66
2022/03/20 14:17:50;;;;;;;10.02;3.10;;;;;;;;;;5051834;28;20021;-62
2022/03/20 14:20:22;;;;;;;8.90;3.28;;;;;;;;;;5052070;28;20044;-64
2022/03/20 14:22:54;;;;;;;10.10;3.60;;;;;;;;;;5051038;28;20025;-62
2022/03/20 14:25:30;;;;;;;6.70;3.10;;;;;;;;;;5052239;28;20391;-65
2022/03/20 14:28:03;;;;;;;7.22;3.33;;;;;;;;;;5052287;28;20025;-62
2022/03/20 14:41:34;;;;;;;7.95;3.00;;;;;;;;;;5051996;28;20530;-65
2022/03/20 14:44:09;;;;;;;5.97;2.90;;;;;;;;;;5052032;28;20021;-61
2022/03/20 14:46:38;;;;;;;6.18;3.28;;;;;;;;;;5051988;28;20035;-64
2022/03/20 14:49:04;;;;;;;8.85;3.30;;;;;;;;;;5051830;28;20629;-64
2022/03/20 14:51:30;;;;;;;5.47;3.15;;;;;;;;;;5040676;28;20052;-66
2022/03/20 14:53:57;;;;;;;11.18;3.78;;;;;;;;;;5063843;28;20021;-62
2022/03/20 14:56:23;;;;;;;5.85;3.17;;;;;;;;;;5051706;28;20025;-62
2022/03/20 14:58:49;;;;;;;5.95;3.15;;;;;;;;;;5067070;28;20108;-62
2022/03/20 15:01:17;;;;;;;7.35;3.17;;;;;;;;;;5051443;28;20049;-61
2022/03/20 15:03:43;;;;;;;7.10;2.90;;;;;;;;;;5051733;28;20028;-63
2022/03/20 15:06:09;;;;;;;6.30;3.13;;;;;;;;;;5050583;28;20074;-64
2022/03/20 15:11:26;;;;;;;6.80;2.78;;;;;;;;;;5031459;28;20064;-65
2022/03/20 15:13:56;;;;;;;6.68;2.80;;;;;;;;;;5030326;28;20052;-62
2022/03/20 15:16:23;;;;;;;5.95;3.03;;;;;;;;;;5031454;28;20104;-61
2022/03/20 15:18:50;;;;;;;7.70;3.17;;;;;;;;;;5031350;28;20388;-62
2022/03/20 15:21:16;;;;;;;5.82;3.42;;;;;;;;;;5031093;28;20038;-61
2022/03/20 15:23:42;;;;;;;7.07;3.22;;;;;;;;;;5030913;28;20022;-63
2022/03/20 15:26:08;;;;;;;5.68;2.72;;;;;;;;;;5030900;28;20071;-64
2022/03/20 15:28:34;;;;;;;5.72;2.45;;;;;;;;;;5030930;28;20049;-61
2022/03/20 15:31:04;;;;;;;7.65;3.20;;;;;;;;;;5030907;28;20032;-61
2022/03/20 15:33:30;;;;;;;6.15;2.80;;;;;;;;;;5031189;28;20083;-64